Airfield :
LOGIN :

Register | Disclaimer

   EN    FR    IT 

 










Legend :    VFR   Marginal VFR   IFR   Intensive IFR   Very Intensive IFR
Visi :
Ceiling :
>= 8 km
>= 3000ft
5 to 8 km
1000 to 3000 ft
1500m to 5 km
500 to 1000 ft
800 to 1500m
200 to 500 ft
< 800m
< 200 ft
Symbols :   Thunderstorms  Fog  Heavy snow  Heavy precipitations  Wind > 20 kt
SIGMETs :     Misc.  Thunderstorms  Icing  Turbulence  Mountain Waves  Volcanic Ashes






- Airport Elevation : 235 ft
- IATA code : BZG


EPBY - Bydgoszcz

CURRENT METAR :
  • 131700Z 31005KT 9999 -RA OVC004 05/05 Q1002

EXPIRED METARs :
  • 131630Z 32005KT 9999 FEW003 BKN005 OVC007 06/05 Q1002
  • 131600Z 33004KT 9999 BKN006 OVC008 06/05 Q1002
  • 131530Z 34005KT 320V020 9999 SCT004 OVC006 06/05 Q1002
  • 131500Z 33004KT 9000 -RA BKN003 OVC006 06/05 Q1002
  • 131430Z 32007KT 9999 -RA BKN003 OVC005 06/05 Q1002

TAF AMD TAF EPBY
Valid from the 13 at 16:00 until the 14 at 12:00 UTC


131604Z 1316/1412 01004KT 9999 BKN008
PROB40 1316/1403 3000 RA BR BKN002
BECMG 1401/1404 27010KT 9999 BKN010
TEMPO 1404/1408 BKN004
BECMG 1409/1411 VRB02KT BKN018



MET'MAP, your aeronautical weather chart ! - Copyright ORBIFLY December 2007 - Disclaimer

ORBIFLY MET'MAP TEAM :

Programming & Development : Alexandra Zaïnal
Concept & Development : Baudouin d'Aumeries
Co-Development & Prog : Marc-Olivier Méhu
Technical & hardware support : Manuel Goepfert

Contact : metmap@orbifly.com




SOURCES & CREDITS :

   NOAA